Fort Myers, FL

2:26 AM EDT on September 02, 2015 (GMT -0400)
Orangewood | | Change Station
CLOSE
Current Station
Personal Weather Station
Location: Fort Myers, FL
Elevation: 20 ft
Nearby Weather Stations

Elev 20 ft 26.60 °N, 81.88 °W | Updated 8 seconds ago

Mostly Cloudy
Mostly Cloudy
80.1 °F
Feels Like 82 °F
N
2.0
Wind Variable Wind from South
Gusts 2.0 mph

Today
High -- | Low -- °F
--% Chance of Precip.
Yesterday
High -- | Low -- °F
Precip. -- in
7:07 AM 7:46 PM
Waning Gibbous, 83% visible
Pressure 30.06 in
Visibility 10.0 miles
Clouds Mostly Cloudy 3000 ft
Heat Index 82 °F
Dew Point 64 °F
Humidity 57%
Rainfall 0.00 in
Snow Depth Not available.
UV 0 out of 12
Pollen 3.10 out of 12
Air Quality Not available.
Flu Activity Not available.
METAR KFMY 020553Z AUTO 14003KT 10SM BKN030 26/24 A3006 RMK AO2 SLP180 T02610244 10300 20261 58002
Pressure 30.06 in
Visibility 10.0 miles
Clouds Mostly Cloudy 3000 ft
Heat Index 82 °F
Dew Point 64 °F
Humidity 57%
Rainfall 0.00 in
Snow Depth Not available.
UV 0 out of 12
Pollen 3.10 out of 12
Air Quality Not available.
Flu Activity Not available.
METAR KFMY 020553Z AUTO 14003KT 10SM BKN030 26/24 A3006 RMK AO2 SLP180 T02610244 10300 20261 58002

10-Day Weather Forecast

×

Almanac

Astronomy

Sep. 02, 2015 Rise Set
Actual Time
Civil Twilight
Nautical Twilight
Astronomical Twilight
Moon
Length of Visible Light
Length of Day
Tomorrow will be .
, % of the Moon is Illuminated

Today's Extremes

State Highs State Lows

Community

WunderPhotos

Upload Photos

1,851,709 photos uploaded!

WunderBlogs® & News

Nearby

Air Quality

  Air Quality AQ Index Pollutant
Not available.

Snow Depth

Station Depth Elevation

Earthquake Activity

City Distance Mag. Time & Date
Minimum magnitude displayed is 2.5.

Coastal Water Temperatures

Place Temperature

Stations

Nearby Weather Stations

Station Location Temp. Windchill Dew Point Humidity Wind Precip. Elev Updated Type